Time;durP1;ratioP1;P1;durP2;ratioP2;P2;SDS_P1;SDS_P2;PMS_P1;PMS_P2;Temp;Humidity;BMP_temperature;BMP_pressure;BME280_temperature;BME280_humidity;BME280_pressure;Samples;Min_cycle;Max_cycle;Signal;HPM_P1;HPM_P2
2023/12/16 15:20:52;;;;;;;8.55;2.85;;;;;;;5.17;94.71;94307.34;5130577;27;20119;-81
2023/12/16 15:23:18;;;;;;;8.60;2.70;;;;;;;5.02;97.17;94315.41;5073225;28;20499;-80
2023/12/16 15:25:46;;;;;;;4.50;2.83;;;;;;;5.01;97.79;94316.41;5110611;28;20040;-78
2023/12/16 15:28:11;;;;;;;7.05;4.20;;;;;;;4.95;98.98;94314.63;5110383;28;20032;-82
2023/12/16 15:30:42;;;;;;;6.10;3.63;;;;;;;4.91;100.00;94313.44;5088867;28;20036;-81
2023/12/16 15:33:08;;;;;;;7.05;4.00;;;;;;;4.90;100.00;94327.44;5113111;28;20039;-80
2023/12/16 15:35:34;;;;;;;6.82;4.13;;;;;;;4.75;100.00;94325.09;5098393;28;20031;-81
2023/12/16 15:38:05;;;;;;;8.88;4.75;;;;;;;4.66;100.00;94331.50;5111330;28;20036;-81
2023/12/16 15:40:56;;;;;;;6.22;3.40;;;;;;;4.57;100.00;94333.50;5110294;28;20096;-81
2023/12/16 15:43:23;;;;;;;6.32;2.72;;;;;;;4.50;100.00;94328.38;5106784;28;20038;-81
2023/12/16 15:46:07;;;;;;;6.00;2.80;;;;;;;4.44;100.00;94336.16;5117102;27;20118;-80
2023/12/16 15:48:40;;;;;;;6.82;2.90;;;;;;;4.45;100.00;94330.75;5123487;28;20447;-80
2023/12/16 15:51:07;;;;;;;6.28;2.88;;;;;;;4.26;100.00;94321.22;5123993;28;20047;-81
2023/12/16 15:53:56;;;;;;;8.82;3.08;;;;;;;4.12;100.00;94336.81;5105680;28;20051;-80
2023/12/16 15:56:22;;;;;;;6.82;3.30;;;;;;;4.05;100.00;94332.59;5110775;27;20389;-80
2023/12/16 15:58:52;;;;;;;4.88;3.00;;;;;;;4.06;100.00;94337.59;5119079;28;20119;-80
2023/12/16 16:01:32;;;;;;;11.10;3.47;;;;;;;3.85;100.00;94341.19;5112089;28;20406;-81
2023/12/16 16:04:31;;;;;;;10.43;3.25;;;;;;;3.87;100.00;94338.38;5106871;28;20114;-80
2023/12/16 16:07:02;;;;;;;6.03;3.00;;;;;;;3.80;100.00;94333.19;5105168;28;20028;-80
2023/12/16 16:09:31;;;;;;;5.15;2.88;;;;;;;3.80;100.00;94332.41;5103605;28;20036;-80
2023/12/16 16:12:01;;;;;;;8.73;2.80;;;;;;;3.78;100.00;94334.41;5108973;28;20100;-80
2023/12/16 16:15:13;;;;;;;7.28;2.70;;;;;;;3.79;100.00;94325.66;5110102;28;20031;-80
2023/12/16 16:17:46;;;;;;;4.70;2.60;;;;;;;3.66;100.00;94322.03;5122355;28;20039;-81
2023/12/16 16:20:57;;;;;;;13.77;5.93;;;;;;;3.62;100.00;94333.00;5101958;28;20102;-81
2023/12/16 16:23:32;;;;;;;10.30;4.85;;;;;;;3.50;100.00;94348.31;5110700;28;20028;-81
2023/12/16 16:25:58;;;;;;;7.45;4.20;;;;;;;3.40;100.00;94348.69;5118577;28;20492;-82
2023/12/16 16:28:33;;;;;;;7.13;3.17;;;;;;;3.34;100.00;94346.88;5123860;28;20020;-81
2023/12/16 16:30:58;;;;;;;5.85;3.83;;;;;;;3.32;100.00;94356.63;5092921;28;20035;-80
2023/12/16 16:33:29;;;;;;;8.32;3.35;;;;;;;3.29;100.00;94357.84;5090302;28;20094;-81
2023/12/16 16:35:55;;;;;;;5.25;3.25;;;;;;;3.22;100.00;94349.25;5082980;28;20317;-81
2023/12/16 16:38:20;;;;;;;9.25;2.95;;;;;;;3.22;100.00;94361.38;5087070;28;20043;-80
2023/12/16 16:40:46;;;;;;;4.50;2.67;;;;;;;3.23;100.00;94355.22;5092323;28;20061;-80
2023/12/16 16:43:13;;;;;;;6.57;2.70;;;;;;;3.20;100.00;94358.19;5085091;28;20431;-81
2023/12/16 16:45:41;;;;;;;6.18;2.90;;;;;;;3.16;100.00;94362.97;5080232;28;20406;-83
2023/12/16 16:48:07;;;;;;;9.60;2.90;;;;;;;3.15;100.00;94355.38;5093953;28;20107;-81
2023/12/16 16:50:38;;;;;;;6.90;2.72;;;;;;;3.10;100.00;94361.94;5093614;28;20111;-81
2023/12/16 16:53:03;;;;;;;4.90;2.75;;;;;;;3.07;100.00;94361.53;5097921;28;20040;-79
2023/12/16 16:55:30;;;;;;;8.38;3.40;;;;;;;3.01;100.00;94365.69;5096790;28;20559;-79
2023/12/16 16:57:58;;;;;;;7.80;3.15;;;;;;;3.00;100.00;94369.28;5093323;28;20468;-80
2023/12/16 17:00:23;;;;;;;9.90;3.50;;;;;;;2.98;100.00;94368.66;5098810;28;20061;-80
2023/12/16 17:03:01;;;;;;;7.95;3.72;;;;;;;2.92;100.00;94366.84;5098988;28;20122;-79
2023/12/16 17:05:27;;;;;;;9.70;3.20;;;;;;;2.90;100.00;94368.81;5101424;28;20032;-80
2023/12/16 17:07:52;;;;;;;8.63;2.85;;;;;;;2.84;100.00;94377.38;5090369;28;20095;-80
2023/12/16 17:10:19;;;;;;;5.43;2.90;;;;;;;2.75;100.00;94374.16;5088732;28;20032;-80
2023/12/16 17:12:46;;;;;;;7.97;2.70;;;;;;;2.71;100.00;94380.69;5095683;28;20032;-80
2023/12/16 17:15:11;;;;;;;4.55;2.88;;;;;;;2.66;100.00;94389.00;5095505;28;20106;-79
2023/12/16 17:17:38;;;;;;;8.38;3.05;;;;;;;2.65;100.00;94387.41;5092684;28;20069;-80
2023/12/16 17:20:14;;;;;;;5.35;2.80;;;;;;;2.63;100.00;94394.53;5109330;28;20082;-80
2023/12/16 17:22:40;;;;;;;4.63;2.75;;;;;;;2.58;100.00;94396.91;5102813;28;20043;-80
2023/12/16 17:25:07;;;;;;;6.22;2.90;;;;;;;2.56;100.00;94396.31;5096320;28;20028;-80
2023/12/16 17:27:45;;;;;;;5.78;2.55;;;;;;;2.48;100.00;94391.28;5086675;28;20114;-79
2023/12/16 17:30:14;;;;;;;6.38;3.60;;;;;;;2.46;100.00;94395.84;5088770;28;20028;-80
2023/12/16 17:32:45;;;;;;;7.60;4.65;;;;;;;2.43;100.00;94394.44;5092872;28;20040;-79
2023/12/16 17:35:11;;;;;;;6.47;4.10;;;;;;;2.41;100.00;94403.34;5084047;28;20066;-79
2023/12/16 17:37:37;;;;;;;9.48;4.30;;;;;;;2.40;100.00;94419.88;5090563;28;20261;-80
2023/12/16 17:40:03;;;;;;;8.82;5.07;;;;;;;2.34;100.00;94416.22;5089766;28;20051;-82
2023/12/16 17:42:29;;;;;;;12.95;7.10;;;;;;;2.32;100.00;94413.06;5088901;28;20396;-79
2023/12/16 17:44:54;;;;;;;16.27;9.13;;;;;;;2.31;100.00;94426.97;5088870;28;20029;-79
2023/12/16 17:47:20;;;;;;;18.90;8.88;;;;;;;2.24;100.00;94421.72;5083592;28;20088;-78
2023/12/16 17:49:46;;;;;;;22.85;10.18;;;;;;;2.23;100.00;94421.91;5092200;28;20032;-79
2023/12/16 17:52:11;;;;;;;14.77;7.18;;;;;;;2.18;100.00;94427.63;5085193;28;20292;-80
2023/12/16 17:54:37;;;;;;;8.80;4.55;;;;;;;2.17;100.00;94435.59;5083048;28;20036;-79
2023/12/16 17:57:04;;;;;;;5.20;3.08;;;;;;;2.12;100.00;94435.34;5081408;28;20040;-81
2023/12/16 17:59:30;;;;;;;4.97;2.90;;;;;;;2.08;100.00;94437.50;5085311;28;20044;-81
2023/12/16 18:01:56;;;;;;;6.90;3.60;;;;;;;2.01;100.00;94437.44;5101930;28;20097;-80
2023/12/16 18:04:21;;;;;;;7.68;3.13;;;;;;;1.96;100.00;94434.63;5080706;28;20068;-79
2023/12/16 18:06:51;;;;;;;6.70;3.92;;;;;;;1.98;100.00;94429.25;5081114;28;20055;-81
2023/12/16 18:09:20;;;;;;;7.50;4.15;;;;;;;1.93;100.00;94434.97;5077349;28;20093;-80
2023/12/16 18:11:47;;;;;;;8.52;5.15;;;;;;;1.94;100.00;94430.63;5080187;28;20055;-79
2023/12/16 18:14:12;;;;;;;14.25;7.90;;;;;;;1.86;100.00;94440.09;5090508;28;20433;-79
2023/12/16 18:16:38;;;;;;;10.55;6.10;;;;;;;1.85;100.00;94440.28;5093604;28;20028;-79
2023/12/16 18:19:04;;;;;;;9.25;5.28;;;;;;;1.90;100.00;94448.28;5089731;28;20036;-79
2023/12/16 18:21:30;;;;;;;10.48;5.47;;;;;;;1.84;100.00;94434.31;5092342;28;20119;-80
2023/12/16 18:23:57;;;;;;;9.23;4.57;;;;;;;1.85;100.00;94435.91;5097193;28;20082;-81
2023/12/16 18:26:25;;;;;;;11.50;5.30;;;;;;;1.83;100.00;94439.66;5081308;28;20041;-79
2023/12/16 18:28:52;;;;;;;10.35;5.65;;;;;;;1.77;100.00;94445.56;5091105;28;20088;-80
2023/12/16 18:31:17;;;;;;;138.45;55.60;;;;;;;2.01;100.00;94450.38;5086711;28;20111;-79
2023/12/16 18:33:43;;;;;;;21.63;10.15;;;;;;;2.00;100.00;94453.13;5091056;28;20082;-81
2023/12/16 18:36:09;;;;;;;67.20;26.90;;;;;;;1.91;100.00;94451.66;5098089;28;20027;-81
2023/12/16 18:38:34;;;;;;;30.40;12.85;;;;;;;1.84;100.00;94457.53;5086515;28;20393;-79
2023/12/16 18:41:00;;;;;;;21.92;11.55;;;;;;;1.82;100.00;94462.13;5090828;28;20524;-79
2023/12/16 18:43:26;;;;;;;15.10;7.43;;;;;;;1.78;100.00;94468.63;5092960;28;20032;-80
2023/12/16 18:45:54;;;;;;;12.00;5.40;;;;;;;1.73;100.00;94465.78;5064558;28;20050;-81
2023/12/16 18:48:20;;;;;;;9.43;5.00;;;;;;;1.67;100.00;94463.94;5102653;28;20093;-79
2023/12/16 18:50:47;;;;;;;10.18;4.90;;;;;;;1.66;100.00;94467.50;5096940;28;20036;-80
2023/12/16 18:53:16;;;;;;;17.50;8.57;;;;;;;1.61;100.00;94472.41;5092957;28;20034;-79
2023/12/16 18:55:42;;;;;;;13.98;6.15;;;;;;;1.64;100.00;94479.78;5085667;28;20075;-81
2023/12/16 18:58:08;;;;;;;14.98;7.20;;;;;;;1.57;100.00;94476.34;5099612;28;20036;-81
2023/12/16 19:00:34;;;;;;;17.88;7.22;;;;;;;1.62;100.00;94479.97;5088080;28;20028;-80
2023/12/16 19:03:00;;;;;;;14.07;6.07;;;;;;;1.58;100.00;94483.13;5095931;28;20055;-80
2023/12/16 19:05:26;;;;;;;13.02;5.53;;;;;;;1.56;100.00;94485.06;5104679;28;20659;-79
2023/12/16 19:07:51;;;;;;;10.80;6.07;;;;;;;1.57;100.00;94486.66;5093399;28;20020;-80
2023/12/16 19:10:19;;;;;;;9.88;6.13;;;;;;;1.53;100.00;94485.41;5074485;28;20051;-81
2023/12/16 19:12:45;;;;;;;11.93;6.43;;;;;;;1.52;100.00;94481.25;5089048;28;20063;-80
2023/12/16 19:15:10;;;;;;;20.85;10.48;;;;;;;1.43;100.00;94481.34;5080339;28;20039;-80
2023/12/16 19:17:36;;;;;;;13.10;8.63;;;;;;;1.41;100.00;94488.47;5100338;28;20036;-81
2023/12/16 19:20:03;;;;;;;13.57;7.60;;;;;;;1.37;100.00;94491.59;5092551;28;20040;-82
2023/12/16 19:22:29;;;;;;;16.75;7.38;;;;;;;1.32;100.00;94497.28;5089565;28;20127;-80
2023/12/16 19:24:55;;;;;;;18.58;7.60;;;;;;;1.28;100.00;94493.47;5101394;28;20046;-80
2023/12/16 19:27:21;;;;;;;13.80;7.80;;;;;;;1.21;100.00;94498.53;5093706;28;20035;-81
2023/12/16 19:29:47;;;;;;;11.77;6.90;;;;;;;1.18;100.00;94500.69;5093376;28;20040;-81
2023/12/16 19:32:13;;;;;;;17.75;8.15;;;;;;;1.15;100.00;94494.13;5088525;28;20036;-81
2023/12/16 19:34:38;;;;;;;13.27;7.13;;;;;;;1.12;100.00;94499.59;5084181;28;20047;-80
2023/12/16 19:37:04;;;;;;;17.70;8.52;;;;;;;1.07;100.00;94491.63;5090243;28;20043;-80
2023/12/16 19:39:29;;;;;;;17.10;8.43;;;;;;;1.03;100.00;94491.16;5101560;28;20561;-81
2023/12/16 19:41:56;;;;;;;16.50;8.10;;;;;;;0.99;100.00;94495.09;5072000;28;20040;-80
2023/12/16 19:44:24;;;;;;;12.00;7.18;;;;;;;0.96;100.00;94504.94;5090143;28;20028;-80
2023/12/16 19:46:51;;;;;;;12.00;6.43;;;;;;;0.91;100.00;94497.75;5090580;28;20123;-81
2023/12/16 19:49:18;;;;;;;11.77;7.88;;;;;;;0.89;100.00;94499.69;5087404;28;20120;-81
2023/12/16 19:51:47;;;;;;;13.10;8.00;;;;;;;0.87;100.00;94501.66;5093858;28;20044;-84
2023/12/16 19:54:31;;;;;;;18.55;8.38;;;;;;;0.86;100.00;94502.66;5093196;28;20024;-81
2023/12/16 19:57:02;;;;;;;15.43;7.80;;;;;;;0.77;100.00;94491.59;5099500;28;20044;-80
2023/12/16 19:59:32;;;;;;;18.17;8.30;;;;;;;0.80;100.00;94511.88;5098306;28;20191;-80
2023/12/16 20:02:39;;;;;;;15.30;8.38;;;;;;;0.79;100.00;94499.19;5099293;28;20034;-81
2023/12/16 20:05:10;;;;;;;20.90;10.15;;;;;;;0.74;100.00;94506.63;5099020;28;20036;-80
2023/12/16 20:07:39;;;;;;;18.02;8.85;;;;;;;0.75;100.00;94503.06;5100972;28;20449;-80
2023/12/16 20:10:06;;;;;;;17.08;9.93;;;;;;;0.73;100.00;94507.59;5101019;28;20027;-80
2023/12/16 20:12:58;;;;;;;19.15;8.93;;;;;;;0.70;100.00;94501.03;5102062;28;20039;-81
2023/12/16 20:15:31;;;;;;;14.45;7.40;;;;;;;0.69;100.00;94508.94;5102073;28;20111;-79
2023/12/16 20:17:57;;;;;;;11.45;7.35;;;;;;;0.69;100.00;94514.09;5102567;28;20400;-80
2023/12/16 20:20:30;;;;;;;15.57;7.60;;;;;;;0.69;100.00;94509.72;5103097;28;20070;-80
2023/12/16 20:22:57;;;;;;;13.77;7.43;;;;;;;0.67;100.00;94509.09;5096709;28;20036;-80
2023/12/16 20:25:23;;;;;;;12.43;7.78;;;;;;;0.66;100.00;94515.25;5100778;28;20040;-80
2023/12/16 20:27:49;;;;;;;15.90;8.18;;;;;;;0.66;100.00;94514.44;5111582;28;20042;-80
2023/12/16 20:30:16;;;;;;;13.52;8.20;;;;;;;0.63;100.00;94518.16;5121523;28;20091;-80
2023/12/16 20:32:41;;;;;;;16.33;8.82;;;;;;;0.62;100.00;94525.09;5120327;28;20032;-79
2023/12/16 20:35:08;;;;;;;17.77;8.32;;;;;;;0.61;100.00;94517.53;5118638;28;20517;-79
2023/12/16 20:37:38;;;;;;;25.08;14.98;;;;;;;0.60;100.00;94527.03;5119008;28;20031;-80
2023/12/16 20:43:00;;;;;;;13.50;8.52;;;;;;;0.55;100.00;94534.50;5122093;28;20040;-79
2023/12/16 20:45:28;;;;;;;13.95;8.25;;;;;;;0.53;100.00;94541.59;5123548;28;20031;-80
2023/12/16 20:48:00;;;;;;;20.48;12.02;;;;;;;0.50;100.00;94541.97;5122487;28;20020;-80
2023/12/16 20:50:30;;;;;;;24.88;12.55;;;;;;;0.47;100.00;94547.44;5122766;28;20081;-79
2023/12/16 20:52:58;;;;;;;20.48;11.30;;;;;;;0.43;100.00;94546.22;5104213;28;20043;-79
2023/12/16 20:55:26;;;;;;;19.75;11.10;;;;;;;0.44;100.00;94547.78;5123394;28;20035;-79
2023/12/16 20:57:52;;;;;;;14.32;7.97;;;;;;;0.43;100.00;94551.34;5122131;28;20057;-80
2023/12/16 21:00:21;;;;;;;12.70;7.80;;;;;;;0.45;100.00;94551.16;5121825;28;20063;-80
2023/12/16 21:02:48;;;;;;;14.88;9.75;;;;;;;0.43;100.00;94556.50;5121386;28;20032;-80
2023/12/16 21:05:14;;;;;;;13.25;8.02;;;;;;;0.41;100.00;94553.31;5122121;28;20042;-79
2023/12/16 21:07:40;;;;;;;12.63;7.28;;;;;;;0.41;100.00;94548.94;5097770;28;20028;-80
2023/12/16 21:10:07;;;;;;;21.00;8.75;;;;;;;0.42;100.00;94549.75;5115774;28;20031;-80
2023/12/16 21:12:33;;;;;;;14.00;8.13;;;;;;;0.41;100.00;94543.00;5112310;28;20043;-80
2023/12/16 21:14:58;;;;;;;11.65;7.95;;;;;;;0.41;100.00;94548.16;5101390;28;20043;-80
2023/12/16 21:17:25;;;;;;;14.07;7.57;;;;;;;0.40;100.00;94549.09;5109409;28;20024;-80
2023/12/16 21:19:51;;;;;;;13.73;7.55;;;;;;;0.35;100.00;94543.69;5110441;28;20073;-80
2023/12/16 21:22:17;;;;;;;12.20;7.70;;;;;;;0.32;100.00;94541.47;5108294;28;20044;-80
2023/12/16 21:24:43;;;;;;;13.20;7.55;;;;;;;0.28;100.00;94547.94;5107373;28;20028;-80
2023/12/16 21:27:10;;;;;;;12.10;8.07;;;;;;;0.25;100.00;94543.09;5103720;28;20031;-80
2023/12/16 21:29:36;;;;;;;17.50;8.00;;;;;;;0.25;100.00;94549.06;5112953;28;20048;-80
2023/12/16 21:32:02;;;;;;;13.93;8.02;;;;;;;0.22;100.00;94543.44;5109722;28;20750;-80
2023/12/16 21:34:32;;;;;;;13.75;7.10;;;;;;;0.16;100.00;94545.75;5105864;28;20761;-80
2023/12/16 21:36:57;;;;;;;10.57;6.35;;;;;;;0.21;100.00;94558.13;5108502;28;20032;-80
2023/12/16 21:39:23;;;;;;;13.32;7.35;;;;;;;0.23;100.00;94557.94;5119637;28;20483;-80
2023/12/16 21:41:49;;;;;;;16.02;9.02;;;;;;;0.17;100.00;94544.75;5118054;28;20242;-80
2023/12/16 21:44:15;;;;;;;14.82;7.53;;;;;;;0.19;100.00;94547.19;5112194;28;20051;-81
2023/12/16 21:46:40;;;;;;;14.27;6.45;;;;;;;0.22;100.00;94556.31;5078287;28;20066;-80
2023/12/16 21:49:06;;;;;;;12.80;6.07;;;;;;;0.19;100.00;94555.69;5104971;28;20066;-80
2023/12/16 21:51:32;;;;;;;12.35;6.32;;;;;;;0.19;100.00;94555.69;5111310;28;20127;-80
2023/12/16 21:53:58;;;;;;;14.80;6.70;;;;;;;0.18;100.00;94564.41;5115524;28;20046;-80
2023/12/16 21:56:25;;;;;;;13.63;6.88;;;;;;;0.17;100.00;94560.22;5107275;28;20043;-80
2023/12/16 21:58:52;;;;;;;10.60;6.53;;;;;;;0.16;100.00;94561.19;5097648;28;20055;-80
2023/12/16 22:01:21;;;;;;;12.73;6.90;;;;;;;0.17;100.00;94560.22;5096447;28;20036;-80
2023/12/16 22:03:48;;;;;;;11.88;6.82;;;;;;;0.12;100.00;94554.00;5115619;28;20078;-80
2023/12/16 22:06:13;;;;;;;13.75;7.90;;;;;;;0.11;100.00;94558.34;5111406;28;20112;-80
2023/12/16 22:08:40;;;;;;;14.98;8.27;;;;;;;0.10;100.00;94556.72;5096814;28;20048;-80
2023/12/16 22:11:07;;;;;;;12.30;7.88;;;;;;;0.08;100.00;94550.94;5103600;28;20510;-80
2023/12/16 22:13:32;;;;;;;14.23;7.82;;;;;;;0.09;100.00;94557.72;5088750;28;20013;-80
